Amity, North Carolina
Current Conditions -  °F | °C
As of 8:15 PM on Sunday 23 Nov 2014 (Local Time) from KRUQ Reporting Station
Overcast Overcast  
Wind Chill: 60°   Ceiling: 700
Heat Index: 60°   Visibility: 10mi
Dew Point: 59°   Wind: 15mph
Humidity: 98%   Direction: 140°SE
Pressure: 29.77"   Gusts: 24mph
Location:  35.7427°N, 80.712°W
Report Text: KRUQ 240115Z AUTO 14013G21KT 10SM BKN007 OVC010 15/15 A2977 RMK AO2 T01530150
Loading
Personal Weather Stations






























Interactive Weather Map New forecast layout! Learn more

10-Day Weather Forecast

Advertisements
Track Severe Weather on mobile